createdAt,value
2023-04-27T00:00:55.425Z,29.12
2023-04-27T00:01:55.504Z,29.15
2023-04-27T00:02:55.628Z,29.17
2023-04-27T00:03:55.612Z,29.15
2023-04-27T00:04:55.896Z,29.18
2023-04-27T00:05:55.737Z,29.18
2023-04-27T00:06:55.505Z,29.12
2023-04-27T00:07:55.529Z,29.14
2023-04-27T00:08:55.628Z,29.15
2023-04-27T00:09:56.078Z,29.17
2023-04-27T00:10:55.590Z,29.17
2023-04-27T00:11:55.586Z,29.23
2023-04-27T00:12:55.617Z,29.20
2023-04-27T00:13:55.624Z,29.16
2023-04-27T00:14:56.074Z,29.20
2023-04-27T00:15:55.690Z,29.26
2023-04-27T00:16:55.683Z,29.18
2023-04-27T00:17:55.756Z,29.17
2023-04-27T00:18:55.696Z,29.24
2023-04-27T00:19:55.725Z,29.17
2023-04-27T00:20:55.749Z,29.16
2023-04-27T00:21:55.750Z,29.18
2023-04-27T00:22:55.776Z,29.21
2023-04-27T00:23:55.797Z,29.20
2023-04-27T00:24:55.829Z,29.24
2023-04-27T00:25:55.821Z,29.21
2023-04-27T00:26:55.841Z,29.16
2023-04-27T00:27:55.884Z,29.18
2023-04-27T00:28:55.927Z,29.21
2023-04-27T00:29:56.090Z,29.21
2023-04-27T00:30:55.946Z,29.27
2023-04-27T00:31:55.969Z,29.23
2023-04-27T00:32:56.019Z,29.21
2023-04-27T00:33:55.976Z,29.19
2023-04-27T00:34:56.081Z,29.19
2023-04-27T00:35:55.981Z,29.24
2023-04-27T00:36:56.031Z,29.21
2023-04-27T00:37:56.052Z,29.21
2023-04-27T00:38:56.088Z,29.21
2023-04-27T00:39:56.097Z,29.16
2023-04-27T00:40:56.088Z,29.21
2023-04-27T00:41:56.132Z,29.18
2023-04-27T00:42:56.156Z,29.16
2023-04-27T00:43:56.144Z,29.20
2023-04-27T00:44:56.180Z,29.16
2023-04-27T00:45:56.273Z,29.21
2023-04-27T00:46:56.223Z,29.15
2023-04-27T00:47:56.304Z,29.13
2023-04-27T00:48:56.248Z,29.18
2023-04-27T00:49:56.279Z,29.16
2023-04-27T00:50:56.256Z,29.18
2023-04-27T00:51:56.271Z,29.25
2023-04-27T00:52:56.282Z,29.22
2023-04-27T00:53:56.330Z,29.19
2023-04-27T00:54:56.314Z,29.16
2023-04-27T00:55:56.326Z,29.21
2023-04-27T00:56:56.360Z,29.21
2023-04-27T00:57:56.427Z,29.27
2023-04-27T00:58:56.374Z,29.22
2023-04-27T00:59:56.414Z,29.24
2023-04-27T01:00:56.442Z,29.18
2023-04-27T01:01:56.447Z,29.21
2023-04-27T01:02:56.681Z,29.18
2023-04-27T01:03:56.618Z,29.25
2023-04-27T01:04:56.513Z,29.19
2023-04-27T01:05:56.471Z,29.24
2023-04-27T01:06:56.509Z,29.18
2023-04-27T01:07:56.519Z,29.22
2023-04-27T01:08:56.564Z,29.21
2023-04-27T01:09:56.590Z,29.21
2023-04-27T01:10:56.604Z,29.24
2023-04-27T01:11:56.620Z,29.17
2023-04-27T01:12:56.659Z,29.18
2023-04-27T01:13:56.680Z,29.25
2023-04-27T01:14:56.678Z,29.17
2023-04-27T01:15:56.679Z,29.24
2023-04-27T01:16:56.848Z,29.21
2023-04-27T01:17:56.792Z,29.22
2023-04-27T01:18:56.749Z,29.24
2023-04-27T01:19:56.805Z,29.24
2023-04-27T01:20:56.754Z,29.28
2023-04-27T01:21:56.796Z,29.26
2023-04-27T01:22:56.808Z,29.24
2023-04-27T01:23:56.851Z,29.22
2023-04-27T01:24:56.837Z,29.22
2023-04-27T01:25:56.852Z,29.23
2023-04-27T01:26:56.896Z,29.25
2023-04-27T01:27:56.895Z,29.25
2023-04-27T01:28:56.925Z,29.21
2023-04-27T01:29:56.960Z,29.28
2023-04-27T01:30:56.984Z,29.28
2023-04-27T01:31:56.976Z,29.25
2023-04-27T01:32:57.045Z,29.28
2023-04-27T01:33:57.010Z,29.26
2023-04-27T01:34:57.045Z,29.22
2023-04-27T01:35:57.069Z,29.25
2023-04-27T01:36:57.099Z,29.26
2023-04-27T01:37:57.116Z,29.26
2023-04-27T01:38:57.108Z,29.26
2023-04-27T01:39:57.158Z,29.26
2023-04-27T01:40:57.201Z,29.29
2023-04-27T01:41:58.534Z,29.25
2023-04-27T01:42:57.213Z,29.31
2023-04-27T01:43:57.239Z,29.26
2023-04-27T01:44:57.256Z,29.25
2023-04-27T01:45:57.316Z,29.17
2023-04-27T01:46:57.291Z,29.25
2023-04-27T01:47:57.381Z,29.25
2023-04-27T01:48:57.369Z,29.26
2023-04-27T01:49:57.381Z,29.28
2023-04-27T01:50:58.104Z,29.26
2023-04-27T01:51:57.367Z,29.26
2023-04-27T01:52:57.394Z,29.22
2023-04-27T01:53:57.431Z,29.26
2023-04-27T01:54:57.476Z,29.25
2023-04-27T01:55:57.467Z,29.28
2023-04-27T01:56:57.491Z,29.22
2023-04-27T01:57:57.516Z,29.23
2023-04-27T01:58:57.543Z,29.31
2023-04-27T01:59:57.596Z,29.26
2023-04-27T02:00:57.576Z,29.31
2023-04-27T02:01:57.713Z,29.29
2023-04-27T02:02:57.850Z,29.25
2023-04-27T02:03:57.885Z,29.23
2023-04-27T02:04:57.706Z,29.22
2023-04-27T02:05:57.724Z,29.29
2023-04-27T02:06:57.742Z,29.28
2023-04-27T02:07:57.758Z,29.29
2023-04-27T02:08:57.773Z,29.28
2023-04-27T02:09:57.786Z,29.29
2023-04-27T02:10:57.835Z,29.29
2023-04-27T02:11:57.841Z,29.28
2023-04-27T02:12:57.875Z,29.30
2023-04-27T02:13:57.897Z,29.24
2023-04-27T02:14:57.893Z,29.23
2023-04-27T02:15:57.962Z,29.23
2023-04-27T02:16:57.957Z,29.22
2023-04-27T02:17:58.011Z,29.29
2023-04-27T02:18:58.018Z,29.34
2023-04-27T02:19:58.012Z,29.29
2023-04-27T02:20:58.065Z,29.26
2023-04-27T02:21:58.089Z,29.36
2023-04-27T02:22:58.075Z,29.29
2023-04-27T02:23:58.131Z,29.30
2023-04-27T02:24:58.125Z,29.27
2023-04-27T02:25:58.173Z,29.29
2023-04-27T02:26:58.217Z,29.34
2023-04-27T02:27:58.211Z,29.29
2023-04-27T02:28:58.242Z,29.32
2023-04-27T02:29:58.280Z,29.30
2023-04-27T02:30:58.277Z,29.34
2023-04-27T02:31:58.366Z,29.27
2023-04-27T02:32:58.355Z,29.32
2023-04-27T02:33:58.323Z,29.32
2023-04-27T02:34:58.380Z,29.33
2023-04-27T02:35:58.402Z,29.33
2023-04-27T02:36:58.425Z,29.27
2023-04-27T02:37:58.410Z,29.29
2023-04-27T02:38:58.445Z,29.30
2023-04-27T02:39:58.473Z,29.37
2023-04-27T02:40:58.534Z,29.27
2023-04-27T02:41:58.531Z,29.35
2023-04-27T02:42:58.524Z,29.30
2023-04-27T02:43:58.571Z,29.35
2023-04-27T02:44:58.618Z,29.39
2023-04-27T02:45:58.614Z,29.30
2023-04-27T02:46:58.675Z,29.29
2023-04-27T02:47:58.698Z,29.30
2023-04-27T02:48:58.701Z,29.26
2023-04-27T02:49:58.702Z,29.35
2023-04-27T02:50:58.754Z,29.32
2023-04-27T02:51:58.759Z,29.32
2023-04-27T02:52:58.769Z,29.30
2023-04-27T02:53:58.802Z,29.36
2023-04-27T02:54:58.831Z,29.33
2023-04-27T02:55:58.871Z,29.33
2023-04-27T02:56:58.901Z,29.33
2023-04-27T02:57:58.901Z,29.32
2023-04-27T02:58:58.959Z,29.35
2023-04-27T02:59:58.980Z,29.30
2023-04-27T03:00:59.024Z,29.32
2023-04-27T03:01:59.031Z,29.33
2023-04-27T03:02:59.196Z,29.33
2023-04-27T03:03:59.209Z,29.39
2023-04-27T03:04:59.139Z,29.33
2023-04-27T03:05:59.175Z,29.36
2023-04-27T03:06:59.173Z,29.36
2023-04-27T03:07:59.221Z,29.39
2023-04-27T03:08:59.244Z,29.32
2023-04-27T03:09:59.278Z,29.34
2023-04-27T03:10:59.341Z,29.33
2023-04-27T03:11:59.362Z,29.38
2023-04-27T03:12:59.355Z,29.33
2023-04-27T03:13:59.432Z,29.36
2023-04-27T03:14:59.458Z,29.33
2023-04-27T03:15:59.506Z,29.39
2023-04-27T03:16:59.509Z,29.34
2023-04-27T03:17:59.548Z,29.33
2023-04-27T03:18:59.558Z,29.36
2023-04-27T03:19:59.614Z,29.36
2023-04-27T03:20:59.636Z,29.33
2023-04-27T03:21:59.664Z,29.36
2023-04-27T03:22:59.696Z,29.37
2023-04-27T03:23:59.736Z,29.34
2023-04-27T03:24:59.789Z,29.37
2023-04-27T03:25:59.788Z,29.37
2023-04-27T03:26:59.818Z,29.39
2023-04-27T03:27:59.946Z,29.36
2023-04-27T03:28:59.923Z,29.36
2023-04-27T03:30:00.169Z,29.36
2023-04-27T03:30:59.954Z,29.37
2023-04-27T03:32:00.049Z,29.39
2023-04-27T03:33:00.061Z,29.40
2023-04-27T03:34:00.064Z,29.39
2023-04-27T03:35:00.156Z,29.34
2023-04-27T03:36:00.157Z,29.40
2023-04-27T03:37:00.176Z,29.34
2023-04-27T03:38:00.203Z,29.34
2023-04-27T03:39:00.254Z,29.33
2023-04-27T03:40:00.285Z,29.39
2023-04-27T03:41:00.339Z,29.36
2023-04-27T03:42:00.339Z,29.37
2023-04-27T03:43:00.408Z,29.40
2023-04-27T03:44:00.432Z,29.40
2023-04-27T03:45:00.468Z,29.39
2023-04-27T03:46:00.479Z,29.36
2023-04-27T03:47:00.532Z,29.37
2023-04-27T03:48:00.736Z,29.39
2023-04-27T03:49:00.608Z,29.39
2023-04-27T03:50:00.638Z,29.36
2023-04-27T03:51:00.668Z,29.40
2023-04-27T03:52:00.715Z,29.39
2023-04-27T03:53:00.725Z,29.43
2023-04-27T03:54:00.757Z,29.42
2023-04-27T03:55:00.805Z,29.39
2023-04-27T03:56:00.856Z,29.46
2023-04-27T03:57:00.884Z,29.42
2023-04-27T03:58:00.931Z,29.42
2023-04-27T03:59:00.974Z,29.40
2023-04-27T04:00:01.128Z,29.43
2023-04-27T04:01:01.049Z,29.40
2023-04-27T04:02:01.497Z,29.43
2023-04-27T04:03:01.291Z,29.46
2023-04-27T04:04:01.291Z,29.42
2023-04-27T04:05:01.267Z,29.43
2023-04-27T04:06:01.226Z,29.45
2023-04-27T04:07:01.249Z,29.51
2023-04-27T04:08:01.318Z,29.44
2023-04-27T04:09:01.396Z,29.45
2023-04-27T04:10:01.350Z,29.43
2023-04-27T04:11:01.407Z,29.46
2023-04-27T04:12:01.439Z,29.44
2023-04-27T04:13:01.449Z,29.46
2023-04-27T04:14:01.526Z,29.46
2023-04-27T04:15:01.600Z,29.48
2023-04-27T04:16:01.694Z,29.45
2023-04-27T04:17:01.666Z,29.48
2023-04-27T04:18:01.675Z,29.46
2023-04-27T04:19:01.731Z,29.46
2023-04-27T04:20:01.753Z,29.49
2023-04-27T04:21:01.813Z,29.49
2023-04-27T04:22:01.819Z,29.49
2023-04-27T04:23:01.852Z,29.51
2023-04-27T04:24:01.905Z,29.51
2023-04-27T04:25:01.952Z,29.46
2023-04-27T04:26:02.009Z,29.48
2023-04-27T04:27:02.019Z,29.51
2023-04-27T04:28:02.079Z,29.46
2023-04-27T04:29:02.102Z,29.48
2023-04-27T04:30:02.157Z,29.51
2023-04-27T04:31:02.291Z,29.46
2023-04-27T04:32:02.233Z,29.48
2023-04-27T04:33:02.311Z,29.52
2023-04-27T04:34:02.314Z,29.46
2023-04-27T04:35:02.307Z,29.55
2023-04-27T04:36:02.371Z,29.49
2023-04-27T04:37:02.427Z,29.52
2023-04-27T04:38:02.431Z,29.48
2023-04-27T04:39:02.470Z,29.49
2023-04-27T04:40:02.510Z,29.53
2023-04-27T04:41:02.582Z,29.48
2023-04-27T04:42:02.614Z,29.52
2023-04-27T04:43:02.620Z,29.52
2023-04-27T04:44:02.659Z,29.51
2023-04-27T04:45:02.714Z,29.52
2023-04-27T04:46:02.755Z,29.51
2023-04-27T04:47:02.915Z,29.53
2023-04-27T04:48:02.889Z,29.57
2023-04-27T04:49:02.871Z,29.57
2023-04-27T04:50:02.896Z,29.48
2023-04-27T04:51:02.908Z,29.57
2023-04-27T04:52:02.960Z,29.53
2023-04-27T04:53:02.988Z,29.52
2023-04-27T04:54:03.040Z,29.57
2023-04-27T04:55:03.067Z,29.61
2023-04-27T04:56:03.105Z,29.55
2023-04-27T04:57:03.126Z,29.55
2023-04-27T04:58:03.193Z,29.61
2023-04-27T04:59:03.246Z,29.58
2023-04-27T05:00:03.286Z,29.55
2023-04-27T05:01:03.338Z,29.60
2023-04-27T05:02:03.375Z,29.57
2023-04-27T05:03:03.440Z,29.59
2023-04-27T05:04:03.562Z,29.57
2023-04-27T05:05:03.504Z,29.59
2023-04-27T05:06:03.511Z,29.57
2023-04-27T05:07:03.539Z,29.61
2023-04-27T05:08:03.598Z,29.67
2023-04-27T05:09:03.608Z,29.62
2023-04-27T05:10:04.168Z,29.71
2023-04-27T05:11:03.742Z,29.67
2023-04-27T05:12:03.735Z,29.67
2023-04-27T05:14:03.860Z,29.65
2023-04-27T05:15:03.842Z,29.61
2023-04-27T05:16:03.927Z,29.65
2023-04-27T05:17:03.920Z,29.70
2023-04-27T05:18:04.032Z,29.64
2023-04-27T05:19:03.996Z,29.67
2023-04-27T05:20:04.064Z,29.68
2023-04-27T05:21:04.129Z,29.67
2023-04-27T05:22:04.137Z,29.68
2023-04-27T05:23:04.173Z,29.67
2023-04-27T05:24:04.190Z,29.70
2023-04-27T05:25:04.242Z,29.70
2023-04-27T05:26:04.286Z,29.71
2023-04-27T05:27:04.303Z,29.73
2023-04-27T05:28:04.360Z,29.71
2023-04-27T05:29:04.404Z,29.71
2023-04-27T05:30:04.452Z,29.70
2023-04-27T05:31:04.457Z,29.73
2023-04-27T05:32:04.505Z,29.68
2023-04-27T05:33:04.560Z,29.73
2023-04-27T05:34:04.614Z,29.77
2023-04-27T05:35:04.627Z,29.71
2023-04-27T05:36:05.176Z,29.74
2023-04-27T05:37:04.694Z,29.73
2023-04-27T05:38:04.742Z,29.80
2023-04-27T05:39:04.789Z,29.68
2023-04-27T05:40:04.835Z,29.75
2023-04-27T05:41:04.876Z,29.71
2023-04-27T05:42:04.914Z,29.74
2023-04-27T05:43:04.958Z,29.82
2023-04-27T05:44:05.043Z,29.80
2023-04-27T05:45:05.080Z,29.82
2023-04-27T05:46:05.146Z,29.74
2023-04-27T05:47:05.125Z,29.77
2023-04-27T05:48:05.239Z,29.76
2023-04-27T05:49:05.246Z,29.76
2023-04-27T05:50:05.285Z,29.74
2023-04-27T05:51:05.704Z,29.71
2023-04-27T05:52:05.327Z,29.80
2023-04-27T05:53:05.365Z,29.97
2023-04-27T05:54:05.424Z,29.93
2023-04-27T05:55:05.458Z,29.84
2023-04-27T05:56:05.489Z,29.94
2023-04-27T05:57:05.525Z,30.00
2023-04-27T05:58:08.946Z,30.02
2023-04-27T05:59:05.595Z,30.04
2023-04-27T06:00:05.533Z,30.03
2023-04-27T06:01:05.679Z,30.17
2023-04-27T06:02:05.632Z,30.54
2023-04-27T06:03:05.662Z,30.54
2023-04-27T06:04:05.667Z,30.55
2023-04-27T06:05:05.522Z,30.08
2023-04-27T06:06:05.526Z,30.36
2023-04-27T06:07:05.489Z,30.46
2023-04-27T06:08:05.523Z,30.48
2023-04-27T06:09:05.472Z,30.54
2023-04-27T06:10:05.507Z,30.58
2023-04-27T06:11:05.501Z,30.72
2023-04-27T06:12:05.495Z,30.99
2023-04-27T06:13:05.476Z,30.94
2023-04-27T06:14:05.461Z,31.20
2023-04-27T06:15:05.452Z,31.31
2023-04-27T06:16:05.500Z,31.39
2023-04-27T06:17:05.463Z,31.59
2023-04-27T06:18:05.501Z,31.77
2023-04-27T06:19:05.443Z,31.34
2023-04-27T06:20:05.426Z,31.59
2023-04-27T06:21:05.697Z,32.04
2023-04-27T06:22:05.401Z,31.93
2023-04-27T06:23:05.399Z,32.09
2023-04-27T06:24:05.370Z,32.02
2023-04-27T06:25:05.396Z,32.12
2023-04-27T06:26:05.359Z,32.32
2023-04-27T06:27:05.407Z,32.11
2023-04-27T06:28:05.380Z,32.52
2023-04-27T06:29:05.371Z,32.24
2023-04-27T06:30:05.363Z,32.55
2023-04-27T06:31:05.408Z,32.47
2023-04-27T06:32:05.340Z,32.50
2023-04-27T06:33:05.434Z,32.63
2023-04-27T06:34:05.319Z,32.63
2023-04-27T06:35:05.326Z,32.65
2023-04-27T06:36:05.714Z,32.68
2023-04-27T06:37:05.296Z,33.00
2023-04-27T06:38:07.578Z,32.91
2023-04-27T06:39:05.272Z,33.23
2023-04-27T06:40:05.291Z,33.09
2023-04-27T06:41:05.250Z,32.97
2023-04-27T06:42:05.264Z,33.13
2023-04-27T06:43:05.256Z,33.21
2023-04-27T06:44:05.251Z,33.48
2023-04-27T06:45:05.244Z,33.37
2023-04-27T06:46:05.369Z,33.45
2023-04-27T06:47:05.260Z,33.50
2023-04-27T06:48:05.254Z,33.62
2023-04-27T06:49:05.244Z,33.62
2023-04-27T06:50:05.211Z,33.69
2023-04-27T06:51:05.731Z,33.68
2023-04-27T06:52:05.194Z,33.50
2023-04-27T06:53:05.217Z,33.39
2023-04-27T06:54:05.181Z,33.24
2023-04-27T06:55:05.180Z,33.08
2023-04-27T06:56:05.199Z,33.23
2023-04-27T06:57:05.153Z,33.73
2023-04-27T06:58:05.217Z,33.42
2023-04-27T06:59:05.177Z,33.44
2023-04-27T07:00:05.139Z,33.18
2023-04-27T07:01:05.245Z,33.00
2023-04-27T07:02:05.136Z,33.39
2023-04-27T07:03:05.201Z,33.63
2023-04-27T07:04:05.202Z,33.98
2023-04-27T07:05:05.157Z,33.70
2023-04-27T07:06:05.099Z,33.78
2023-04-27T07:07:05.129Z,33.73
2023-04-27T07:08:07.783Z,33.72
2023-04-27T07:09:13.190Z,33.53
2023-04-27T07:10:06.098Z,34.12
2023-04-27T07:11:05.099Z,34.19
2023-04-27T07:12:05.050Z,33.91
2023-04-27T07:13:07.320Z,33.92
2023-04-27T07:14:05.059Z,34.01
2023-04-27T07:15:05.033Z,34.91
2023-04-27T07:16:05.087Z,34.20
2023-04-27T07:17:05.022Z,33.97
2023-04-27T07:18:05.071Z,33.84
2023-04-27T07:19:05.024Z,33.41
2023-04-27T07:20:04.975Z,33.55
2023-04-27T07:21:04.995Z,33.38
2023-04-27T07:22:04.992Z,33.22
2023-04-27T07:23:04.982Z,33.44
2023-04-27T07:24:04.974Z,33.47
2023-04-27T07:25:04.954Z,33.46
2023-04-27T07:26:05.200Z,33.39
2023-04-27T07:27:04.966Z,33.58
2023-04-27T07:28:04.941Z,33.68
2023-04-27T07:29:14.518Z,33.44
2023-04-27T07:30:05.907Z,33.45
2023-04-27T07:31:04.926Z,33.56
2023-04-27T07:32:04.940Z,33.55
2023-04-27T07:33:04.965Z,33.52
2023-04-27T07:34:04.894Z,33.53
2023-04-27T07:35:04.884Z,33.50
2023-04-27T07:36:05.226Z,33.45
2023-04-27T07:37:04.895Z,33.57
2023-04-27T07:38:04.848Z,33.51
2023-04-27T07:39:04.852Z,33.48
2023-04-27T07:40:04.901Z,33.52
2023-04-27T07:41:04.984Z,33.50
2023-04-27T07:42:05.038Z,33.39
2023-04-27T07:43:05.094Z,33.26
2023-04-27T07:44:05.134Z,33.28
2023-04-27T07:45:05.201Z,33.28
2023-04-27T07:46:05.833Z,33.80
2023-04-27T07:47:05.350Z,33.62
2023-04-27T07:48:05.409Z,33.30
2023-04-27T07:49:05.472Z,33.44
2023-04-27T07:50:05.506Z,33.23
2023-04-27T07:51:05.598Z,33.19
2023-04-27T07:52:05.624Z,33.55
2023-04-27T07:53:05.671Z,33.73
2023-04-27T07:54:05.733Z,33.50
2023-04-27T07:55:05.782Z,33.25
2023-04-27T07:56:05.862Z,33.46
2023-04-27T07:57:05.886Z,33.49
2023-04-27T07:58:05.951Z,33.58
2023-04-27T07:59:05.991Z,33.39
2023-04-27T08:00:06.024Z,33.29
2023-04-27T08:01:06.074Z,33.23
2023-04-27T08:02:18.378Z,33.21
2023-04-27T08:03:07.263Z,33.13
2023-04-27T08:04:06.482Z,33.25
2023-04-27T08:05:06.239Z,33.05
2023-04-27T08:06:06.270Z,32.89
2023-04-27T08:07:06.853Z,33.19
2023-04-27T08:08:06.281Z,33.15
2023-04-27T08:09:06.268Z,33.24
2023-04-27T08:10:06.049Z,33.18
2023-04-27T08:11:06.044Z,33.12
2023-04-27T08:12:06.054Z,33.03
2023-04-27T08:13:06.035Z,33.11
2023-04-27T08:14:06.052Z,32.95
2023-04-27T08:15:06.017Z,33.07
2023-04-27T08:16:06.129Z,33.08
2023-04-27T08:17:06.168Z,33.18
2023-04-27T08:18:06.147Z,32.92
2023-04-27T08:19:06.128Z,32.98
2023-04-27T08:20:06.162Z,33.00
2023-04-27T08:21:06.161Z,32.94
2023-04-27T08:22:06.179Z,32.96
2023-04-27T08:23:06.198Z,33.02
2023-04-27T08:24:06.189Z,32.99
2023-04-27T08:25:06.200Z,32.96
2023-04-27T08:26:06.705Z,33.16
2023-04-27T08:27:06.246Z,33.00
2023-04-27T08:28:06.256Z,33.19
2023-04-27T08:29:15.246Z,33.05
2023-04-27T08:30:07.285Z,33.28
2023-04-27T08:31:06.300Z,33.05
2023-04-27T08:32:06.224Z,33.18
2023-04-27T08:33:06.380Z,33.08
2023-04-27T08:34:06.229Z,33.36
2023-04-27T08:35:06.212Z,33.20
2023-04-27T08:36:06.219Z,33.14
2023-04-27T08:37:06.185Z,33.35
2023-04-27T08:38:06.184Z,33.19
2023-04-27T08:39:06.186Z,33.10
2023-04-27T08:40:06.179Z,33.21
2023-04-27T08:41:18.359Z,33.19
2023-04-27T08:42:07.172Z,33.30
2023-04-27T08:43:06.155Z,33.29
2023-04-27T08:44:06.168Z,33.24
2023-04-27T08:45:06.126Z,33.24
2023-04-27T08:46:06.161Z,33.44
2023-04-27T08:47:06.121Z,33.64
2023-04-27T08:48:06.158Z,33.60
2023-04-27T08:49:06.118Z,33.52
2023-04-27T08:50:06.138Z,33.62
2023-04-27T08:51:06.111Z,33.53
2023-04-27T08:52:06.068Z,33.55
2023-04-27T08:53:06.089Z,33.64
2023-04-27T08:54:06.092Z,34.25
2023-04-27T08:55:06.069Z,33.56
2023-04-27T08:56:06.062Z,34.12
2023-04-27T08:57:06.021Z,34.16
2023-04-27T08:58:06.056Z,34.27
2023-04-27T08:59:06.037Z,34.34
2023-04-27T09:00:06.020Z,34.44
2023-04-27T09:01:06.007Z,34.37
2023-04-27T09:02:06.109Z,34.48
2023-04-27T09:03:06.131Z,34.42
2023-04-27T09:04:06.350Z,34.25
2023-04-27T09:05:06.145Z,34.05
2023-04-27T09:06:06.378Z,34.30
2023-04-27T09:07:06.131Z,34.25
2023-04-27T09:08:06.133Z,34.15
2023-04-27T09:09:06.164Z,34.18
2023-04-27T09:10:06.195Z,34.13
2023-04-27T09:11:06.225Z,34.06
2023-04-27T09:12:06.267Z,34.09
2023-04-27T09:13:06.306Z,33.81
2023-04-27T09:14:06.322Z,33.72
2023-04-27T09:15:06.507Z,33.71
2023-04-27T09:16:06.467Z,33.67
2023-04-27T09:17:06.467Z,33.73
2023-04-27T09:18:06.548Z,33.59
2023-04-27T09:19:06.533Z,33.47
2023-04-27T09:20:06.559Z,33.64
2023-04-27T09:21:06.635Z,33.74
2023-04-27T09:22:06.666Z,33.81
2023-04-27T09:23:06.712Z,33.65
2023-04-27T09:24:06.741Z,33.68
2023-04-27T09:25:06.795Z,33.66
2023-04-27T09:26:06.826Z,33.74
2023-04-27T09:27:06.915Z,33.67
2023-04-27T09:28:06.948Z,33.68
2023-04-27T09:29:07.102Z,33.55
2023-04-27T09:30:07.042Z,33.64
2023-04-27T09:31:07.131Z,33.58
2023-04-27T09:32:07.139Z,33.61
2023-04-27T09:33:07.268Z,33.57
2023-04-27T09:34:07.238Z,33.44
2023-04-27T09:35:07.258Z,33.51
2023-04-27T09:36:07.321Z,33.51
2023-04-27T09:37:07.354Z,33.45
2023-04-27T09:38:07.410Z,33.39
2023-04-27T09:39:07.413Z,33.46
2023-04-27T09:40:07.451Z,33.24
2023-04-27T09:41:07.544Z,33.37
2023-04-27T09:42:07.582Z,33.39
2023-04-27T09:43:07.632Z,33.34
2023-04-27T09:44:07.749Z,33.29
2023-04-27T09:45:07.760Z,33.28
2023-04-27T09:46:08.310Z,33.34
2023-04-27T09:47:07.837Z,33.34
2023-04-27T09:48:07.911Z,33.28
2023-04-27T09:49:07.906Z,33.24
2023-04-27T09:50:07.928Z,33.18
2023-04-27T09:51:08.232Z,33.27
2023-04-27T09:52:08.035Z,33.32
2023-04-27T09:53:08.059Z,33.22
2023-04-27T09:54:08.092Z,33.32
2023-04-27T09:55:08.151Z,33.52
2023-04-27T09:56:08.228Z,33.10
2023-04-27T09:57:08.226Z,33.25
2023-04-27T09:58:08.283Z,33.29
2023-04-27T09:59:08.295Z,33.33
2023-04-27T10:00:08.368Z,33.37
2023-04-27T10:01:08.395Z,33.46
2023-04-27T10:02:23.560Z,33.28
2023-04-27T10:03:09.491Z,33.33
2023-04-27T10:04:08.524Z,33.36
2023-04-27T10:05:08.417Z,33.28
2023-04-27T10:06:08.427Z,33.36
2023-04-27T10:07:08.394Z,33.39
2023-04-27T10:08:08.406Z,33.37
2023-04-27T10:09:08.371Z,33.34
2023-04-27T10:10:08.331Z,33.37
2023-04-27T10:11:08.338Z,33.34
2023-04-27T10:12:08.354Z,33.37
2023-04-27T10:13:08.348Z,33.31
2023-04-27T10:14:08.339Z,33.25
2023-04-27T10:15:08.313Z,33.36
2023-04-27T10:16:08.336Z,33.30
2023-04-27T10:17:08.331Z,33.28
2023-04-27T10:18:08.406Z,33.26
2023-04-27T10:19:08.385Z,33.12
2023-04-27T10:20:08.415Z,33.20
2023-04-27T10:21:08.437Z,33.29
2023-04-27T10:22:08.495Z,33.24
2023-04-27T10:23:08.479Z,33.15
2023-04-27T10:24:08.521Z,33.32
2023-04-27T10:25:08.545Z,33.14
2023-04-27T10:26:08.744Z,33.08
2023-04-27T10:27:08.563Z,33.05
2023-04-27T10:28:08.641Z,33.11
2023-04-27T10:29:08.626Z,33.11
2023-04-27T10:30:08.671Z,33.09
2023-04-27T10:31:08.779Z,33.20
2023-04-27T10:32:08.707Z,33.07
2023-04-27T10:33:08.994Z,33.10
2023-04-27T10:34:08.743Z,33.07
2023-04-27T10:35:08.801Z,33.11
2023-04-27T10:36:08.775Z,33.14
2023-04-27T10:37:08.813Z,33.07
2023-04-27T10:38:08.811Z,33.14
2023-04-27T10:39:08.847Z,33.14
2023-04-27T10:40:08.833Z,34.12
2023-04-27T10:41:08.871Z,33.40
2023-04-27T10:42:08.841Z,33.13
2023-04-27T10:43:08.877Z,33.49
2023-04-27T10:44:08.863Z,33.23
2023-04-27T10:45:08.871Z,33.24
2023-04-27T10:46:08.905Z,33.36
2023-04-27T10:47:08.870Z,33.57
2023-04-27T10:48:08.923Z,33.56
2023-04-27T10:49:08.889Z,33.49
2023-04-27T10:50:08.913Z,33.65
2023-04-27T10:51:08.888Z,33.61
2023-04-27T10:52:08.874Z,33.59
2023-04-27T10:53:08.916Z,33.96
2023-04-27T10:54:08.894Z,33.92
2023-04-27T10:55:08.904Z,34.04
2023-04-27T10:56:08.900Z,34.00
2023-04-27T10:57:08.947Z,33.97
2023-04-27T10:58:08.988Z,34.15
2023-04-27T10:59:09.011Z,34.11
2023-04-27T11:00:09.061Z,34.13
2023-04-27T11:01:09.238Z,34.21
2023-04-27T11:02:09.270Z,34.16
2023-04-27T11:03:09.390Z,34.18
2023-04-27T11:04:09.404Z,34.16
2023-04-27T11:05:09.493Z,34.41
2023-04-27T11:06:09.461Z,34.21
2023-04-27T11:07:09.780Z,34.30
2023-04-27T11:08:09.561Z,34.57
2023-04-27T11:09:09.614Z,34.41
2023-04-27T11:10:09.688Z,34.34
2023-04-27T11:11:09.726Z,34.44
2023-04-27T11:12:09.813Z,34.47
2023-04-27T11:13:09.824Z,34.67
2023-04-27T11:14:09.842Z,34.48
2023-04-27T11:15:09.873Z,34.53
2023-04-27T11:16:09.942Z,34.45
2023-04-27T11:17:10.269Z,34.62
2023-04-27T11:18:09.961Z,34.62
2023-04-27T11:19:10.000Z,34.95
2023-04-27T11:20:10.054Z,35.12
2023-04-27T11:21:10.111Z,34.97
2023-04-27T11:22:10.102Z,34.96
2023-04-27T11:23:10.106Z,34.92
2023-04-27T11:24:10.535Z,34.80
2023-04-27T11:25:10.196Z,34.91
2023-04-27T11:26:10.214Z,35.11
2023-04-27T11:27:10.210Z,35.58
2023-04-27T11:28:10.221Z,35.32
2023-04-27T11:29:10.273Z,35.07
2023-04-27T11:30:10.289Z,35.22
2023-04-27T11:31:10.291Z,35.21
2023-04-27T11:32:10.329Z,35.29
2023-04-27T11:33:10.371Z,35.32
2023-04-27T11:34:10.335Z,35.24
2023-04-27T11:35:10.347Z,35.33
2023-04-27T11:36:10.346Z,35.24
2023-04-27T11:37:18.399Z,35.46
2023-04-27T11:38:11.354Z,35.41
2023-04-27T11:39:10.474Z,35.17
2023-04-27T11:40:10.353Z,35.02
2023-04-27T11:41:10.311Z,35.09
2023-04-27T11:42:10.334Z,35.14
2023-04-27T11:43:10.358Z,35.00
2023-04-27T11:44:10.325Z,35.01
2023-04-27T11:45:10.312Z,35.01
2023-04-27T11:46:10.315Z,35.10
2023-04-27T11:47:10.334Z,35.09
2023-04-27T11:48:10.322Z,35.03
2023-04-27T11:49:10.306Z,35.02
2023-04-27T11:50:10.296Z,35.09
2023-04-27T11:51:10.312Z,35.16
2023-04-27T11:52:10.300Z,35.04
2023-04-27T11:53:10.259Z,35.08
2023-04-27T11:54:10.258Z,35.11
2023-04-27T11:55:10.263Z,35.12
2023-04-27T11:56:10.257Z,35.11
2023-04-27T11:57:10.310Z,35.18
2023-04-27T11:58:10.332Z,35.10
2023-04-27T11:59:10.389Z,35.22
2023-04-27T12:00:10.423Z,35.17
2023-04-27T12:01:10.520Z,35.20
2023-04-27T12:02:10.583Z,35.16
2023-04-27T12:03:10.801Z,35.21
2023-04-27T12:04:10.863Z,35.25
2023-04-27T12:05:10.982Z,35.14
2023-04-27T12:06:31.505Z,35.21
2023-04-27T12:07:11.716Z,35.15
2023-04-27T12:08:10.711Z,35.22
2023-04-27T12:09:10.798Z,35.19
2023-04-27T12:10:10.702Z,35.15
2023-04-27T12:11:10.705Z,35.37
2023-04-27T12:12:10.685Z,35.33
2023-04-27T12:13:10.661Z,35.12
2023-04-27T12:14:10.653Z,35.18
2023-04-27T12:15:10.701Z,35.26
2023-04-27T12:16:10.713Z,35.19
2023-04-27T12:17:10.841Z,35.28
2023-04-27T12:18:10.844Z,35.23
2023-04-27T12:19:10.905Z,35.20
2023-04-27T12:20:10.923Z,35.50
2023-04-27T12:21:11.028Z,35.58
2023-04-27T12:22:11.051Z,35.55
2023-04-27T12:23:11.099Z,35.34
2023-04-27T12:24:11.287Z,35.42
2023-04-27T12:25:11.264Z,35.38
2023-04-27T12:26:12.348Z,35.51
2023-04-27T12:27:11.360Z,35.42
2023-04-27T12:28:11.386Z,35.60
2023-04-27T12:29:12.230Z,35.46
2023-04-27T12:30:11.566Z,35.36
2023-04-27T12:31:11.655Z,35.36
2023-04-27T12:32:11.662Z,35.59
2023-04-27T12:33:11.808Z,35.28
2023-04-27T12:34:12.006Z,35.50
2023-04-27T12:35:11.839Z,35.25
2023-04-27T12:36:11.923Z,35.39
2023-04-27T12:37:11.982Z,35.45
2023-04-27T12:38:12.025Z,35.55
2023-04-27T12:39:12.102Z,35.45
2023-04-27T12:40:12.163Z,35.68
2023-04-27T12:41:12.224Z,35.76
2023-04-27T12:42:12.255Z,35.79
2023-04-27T12:43:12.309Z,35.70
2023-04-27T12:44:12.441Z,35.74
2023-04-27T12:45:12.413Z,35.77
2023-04-27T12:46:12.506Z,35.77
2023-04-27T12:47:20.095Z,35.72
2023-04-27T12:48:15.124Z,35.83
2023-04-27T12:49:12.513Z,35.90
2023-04-27T12:50:12.543Z,36.01
2023-04-27T12:51:12.481Z,36.04
2023-04-27T12:52:12.462Z,35.98
2023-04-27T12:53:12.434Z,35.91
2023-04-27T12:54:12.710Z,35.89